createdAt,value
2023-04-17T00:02:00.892Z,12.20
2023-04-17T00:04:47.557Z,12.10
2023-04-17T00:07:34.796Z,12.30
2023-04-17T00:10:20.807Z,12.60
2023-04-17T00:13:06.569Z,12.90
2023-04-17T00:15:52.225Z,12.90
2023-04-17T00:18:38.457Z,12.90
2023-04-17T00:21:24.013Z,12.90
2023-04-17T00:24:09.630Z,12.80
2023-04-17T00:26:56.561Z,12.80
2023-04-17T00:29:42.362Z,12.70
2023-04-17T00:32:28.523Z,12.70
2023-04-17T00:35:15.001Z,12.60
2023-04-17T00:38:00.681Z,12.50
2023-04-17T00:40:46.623Z,12.50
2023-04-17T00:43:32.530Z,12.40
2023-04-17T00:46:18.906Z,12.20
2023-04-17T00:49:05.321Z,12.10
2023-04-17T00:51:51.794Z,11.60
2023-04-17T00:54:37.898Z,11.60
2023-04-17T00:57:24.783Z,11.60
2023-04-17T01:00:11.357Z,11.60
2023-04-17T01:03:00.669Z,11.70
2023-04-17T01:05:50.446Z,11.80
2023-04-17T01:08:43.959Z,11.70
2023-04-17T01:11:29.761Z,11.80
2023-04-17T01:14:15.746Z,11.70
2023-04-17T01:17:02.415Z,11.90
2023-04-17T01:19:49.361Z,11.90
2023-04-17T01:22:35.569Z,11.90
2023-04-17T01:25:23.847Z,12.00
2023-04-17T01:28:09.990Z,12.00
2023-04-17T01:30:56.525Z,12.00
2023-04-17T01:33:42.582Z,11.80
2023-04-17T01:36:28.772Z,11.80
2023-04-17T01:39:14.800Z,11.80
2023-04-17T01:42:01.009Z,11.70
2023-04-17T01:44:46.694Z,11.80
2023-04-17T01:47:32.939Z,11.90
2023-04-17T01:50:18.560Z,12.00
2023-04-17T01:53:04.362Z,11.80
2023-04-17T01:55:50.252Z,11.50
2023-04-17T01:58:35.993Z,11.40
2023-04-17T02:01:22.070Z,11.30
2023-04-17T02:04:07.991Z,11.10
2023-04-17T02:06:54.294Z,11.20
2023-04-17T02:09:40.070Z,11.20
2023-04-17T02:12:26.439Z,11.30
2023-04-17T02:15:12.658Z,11.30
2023-04-17T02:17:58.786Z,11.30
2023-04-17T02:20:44.765Z,11.20
2023-04-17T02:23:31.168Z,11.10
2023-04-17T02:26:17.138Z,11.10
2023-04-17T02:29:03.510Z,11.10
2023-04-17T02:31:49.442Z,11.20
2023-04-17T02:34:35.375Z,11.20
2023-04-17T02:37:21.858Z,11.30
2023-04-17T02:40:09.962Z,11.40
2023-04-17T02:42:56.924Z,11.50
2023-04-17T02:45:42.873Z,11.20
2023-04-17T02:48:29.211Z,11.10
2023-04-17T02:51:15.507Z,10.90
2023-04-17T02:54:01.277Z,11.10
2023-04-17T02:56:46.974Z,11.20
2023-04-17T02:59:32.738Z,11.20
2023-04-17T03:02:22.255Z,11.40
2023-04-17T03:05:09.288Z,11.40
2023-04-17T03:07:55.631Z,11.50
2023-04-17T03:10:43.861Z,10.60
2023-04-17T03:13:29.757Z,10.00
2023-04-17T03:16:15.944Z,9.70
2023-04-17T03:19:04.519Z,9.10
2023-04-17T03:21:50.086Z,9.20
2023-04-17T03:24:36.232Z,9.90
2023-04-17T03:27:24.648Z,10.40
2023-04-17T03:30:13.004Z,10.70
2023-04-17T03:33:02.244Z,10.90
2023-04-17T03:35:49.733Z,11.00
2023-04-17T03:38:38.079Z,11.00
2023-04-17T03:41:26.205Z,11.00
2023-04-17T03:44:12.709Z,11.20
2023-04-17T03:46:58.798Z,11.20
2023-04-17T03:49:44.504Z,11.30
2023-04-17T03:52:31.132Z,11.20
2023-04-17T03:55:17.915Z,11.00
2023-04-17T03:58:05.463Z,10.80
2023-04-17T04:00:55.659Z,10.80
2023-04-17T04:03:45.863Z,10.80
2023-04-17T04:06:31.862Z,10.90
2023-04-17T04:09:18.334Z,11.00
2023-04-17T04:12:04.167Z,10.90
2023-04-17T04:14:54.075Z,10.90
2023-04-17T04:17:40.341Z,10.90
2023-04-17T04:20:26.744Z,10.80
2023-04-17T04:23:25.463Z,10.70
2023-04-17T04:26:12.532Z,10.70
2023-04-17T04:29:12.302Z,10.60
2023-04-17T04:32:17.464Z,10.70
2023-04-17T04:35:06.674Z,10.70
2023-04-17T04:37:55.054Z,10.50
2023-04-17T04:40:45.282Z,10.60
2023-04-17T04:43:33.744Z,10.60
2023-04-17T04:46:21.931Z,10.50
2023-04-17T04:49:09.451Z,10.50
2023-04-17T04:51:55.830Z,10.50
2023-04-17T04:54:48.186Z,10.50
2023-04-17T04:57:34.928Z,10.50
2023-04-17T05:00:21.322Z,10.60
2023-04-17T05:03:10.760Z,10.60
2023-04-17T05:05:58.399Z,10.60
2023-04-17T05:08:49.530Z,10.60
2023-04-17T05:11:35.260Z,10.70
2023-04-17T05:14:21.186Z,10.50
2023-04-17T05:17:08.441Z,10.40
2023-04-17T05:19:54.252Z,10.40
2023-04-17T05:22:42.153Z,10.50
2023-04-17T05:25:31.172Z,9.50
2023-04-17T05:28:18.563Z,10.60
2023-04-17T05:31:04.751Z,10.60
2023-04-17T05:33:55.470Z,10.60
2023-04-17T05:36:41.378Z,10.60
2023-04-17T05:39:27.858Z,10.60
2023-04-17T05:42:13.331Z,10.70
2023-04-17T05:44:59.179Z,10.70
2023-04-17T05:47:45.668Z,10.80
2023-04-17T05:50:31.680Z,10.70
2023-04-17T05:53:17.639Z,10.50
2023-04-17T05:56:08.652Z,10.40
2023-04-17T05:58:55.526Z,10.40
2023-04-17T06:01:43.678Z,10.30
2023-04-17T06:04:30.007Z,10.10
2023-04-17T06:07:16.481Z,10.30
2023-04-17T06:10:03.080Z,10.40
2023-04-17T06:12:49.419Z,10.70
2023-04-17T06:15:36.624Z,11.00
2023-04-17T06:18:22.929Z,11.20
2023-04-17T06:21:09.518Z,11.50
2023-04-17T06:23:56.406Z,11.60
2023-04-17T06:26:42.249Z,11.80
2023-04-17T06:29:28.337Z,11.90
2023-04-17T06:32:14.544Z,12.10
2023-04-17T06:35:00.561Z,12.40
2023-04-17T06:37:59.887Z,12.70
2023-04-17T06:40:46.901Z,12.70
2023-04-17T06:43:32.851Z,12.90
2023-04-17T06:46:30.030Z,13.00
2023-04-17T06:52:48.530Z,13.10
2023-04-17T06:55:34.129Z,13.30
2023-04-17T06:58:19.649Z,13.30
2023-04-17T07:01:05.134Z,13.60
2023-04-17T07:03:51.002Z,13.80
2023-04-17T07:06:38.323Z,13.70
2023-04-17T07:09:25.676Z,13.30
2023-04-17T07:12:11.928Z,13.40
2023-04-17T07:14:57.977Z,13.20
2023-04-17T07:17:44.107Z,13.20
2023-04-17T07:20:30.065Z,12.40
2023-04-17T07:23:16.151Z,12.40
2023-04-17T07:26:01.986Z,12.20
2023-04-17T07:28:48.564Z,12.10
2023-04-17T07:31:34.332Z,12.80
2023-04-17T07:34:20.028Z,12.70
2023-04-17T07:37:06.404Z,12.80
2023-04-17T07:39:53.921Z,13.80
2023-04-17T07:42:40.542Z,14.20
2023-04-17T07:45:28.566Z,14.20
2023-04-17T07:48:14.295Z,14.10
2023-04-17T07:51:01.992Z,14.20
2023-04-17T07:53:48.503Z,14.20
2023-04-17T07:56:34.807Z,13.90
2023-04-17T07:59:21.565Z,14.10
2023-04-17T08:02:08.265Z,14.30
2023-04-17T08:04:54.679Z,14.20
2023-04-17T08:07:41.345Z,14.40
2023-04-17T08:10:28.874Z,14.70
2023-04-17T08:13:14.524Z,15.00
2023-04-17T08:16:01.492Z,15.50
2023-04-17T08:18:47.759Z,15.90
2023-04-17T08:21:33.770Z,16.10
2023-04-17T08:24:20.148Z,16.30
2023-04-17T08:27:07.570Z,16.40
2023-04-17T08:29:55.646Z,16.60
2023-04-17T08:32:45.624Z,16.20
2023-04-17T08:35:31.813Z,15.50
2023-04-17T08:38:17.825Z,15.30
2023-04-17T08:41:09.077Z,14.80
2023-04-17T08:43:58.903Z,14.20
2023-04-17T08:46:45.703Z,14.20
2023-04-17T08:49:35.490Z,14.10
2023-04-17T08:52:21.685Z,13.90
2023-04-17T08:55:09.012Z,13.70
2023-04-17T08:58:04.425Z,14.00
2023-04-17T09:00:51.705Z,14.20
2023-04-17T09:03:46.126Z,13.90
2023-04-17T09:06:54.611Z,13.60
2023-04-17T09:09:51.066Z,13.70
2023-04-17T09:12:42.299Z,13.60
2023-04-17T09:15:28.615Z,13.50
2023-04-17T09:18:31.275Z,14.00
2023-04-17T09:21:20.621Z,14.20
2023-04-17T09:24:08.233Z,14.50
2023-04-17T09:26:54.332Z,14.70
2023-04-17T09:29:57.138Z,15.30
2023-04-17T09:32:43.709Z,16.40
2023-04-17T09:35:30.229Z,16.20
2023-04-17T09:38:17.329Z,15.90
2023-04-17T09:41:03.418Z,16.00
2023-04-17T09:43:50.342Z,16.20
2023-04-17T09:46:41.653Z,16.20
2023-04-17T09:49:50.030Z,16.00
2023-04-17T09:52:37.172Z,16.10
2023-04-17T09:55:26.269Z,16.40
2023-04-17T09:58:12.546Z,16.30
2023-04-17T10:00:59.191Z,16.90
2023-04-17T10:03:45.623Z,17.00
2023-04-17T10:06:33.718Z,17.30
2023-04-17T10:09:21.796Z,17.70
2023-04-17T10:12:13.190Z,16.60
2023-04-17T10:14:59.741Z,17.00
2023-04-17T10:17:47.489Z,17.10
2023-04-17T10:20:36.171Z,16.90
2023-04-17T10:23:34.993Z,16.30
2023-04-17T10:26:41.997Z,16.30
2023-04-17T10:29:56.252Z,16.50
2023-04-17T10:32:46.324Z,17.00
2023-04-17T10:35:36.065Z,16.50
2023-04-17T10:38:36.509Z,16.30
2023-04-17T10:41:23.321Z,16.10
2023-04-17T10:44:09.538Z,15.90
2023-04-17T10:46:56.005Z,16.00
2023-04-17T10:49:59.442Z,16.40
2023-04-17T10:52:46.151Z,16.60
2023-04-17T10:55:32.401Z,16.70
2023-04-17T10:58:18.550Z,16.60
2023-04-17T11:01:10.233Z,16.80
2023-04-17T11:03:57.203Z,17.00
2023-04-17T11:06:45.344Z,17.10
2023-04-17T11:09:31.714Z,17.20
2023-04-17T11:12:19.260Z,17.20
2023-04-17T11:15:06.423Z,17.40
2023-04-17T11:17:52.916Z,17.80
2023-04-17T11:20:39.070Z,17.80
2023-04-17T11:23:30.046Z,17.70
2023-04-17T11:26:16.872Z,18.00
2023-04-17T11:29:03.562Z,18.20
2023-04-17T11:31:52.398Z,18.30
2023-04-17T11:34:39.172Z,18.60
2023-04-17T11:37:25.580Z,18.50
2023-04-17T11:40:12.291Z,18.90
2023-04-17T11:43:03.182Z,19.70
2023-04-17T11:45:56.622Z,21.40
2023-04-17T11:48:43.095Z,24.80
2023-04-17T11:51:29.614Z,26.30
2023-04-17T11:54:34.909Z,28.20
2023-04-17T11:57:21.610Z,27.30
2023-04-17T12:00:15.320Z,26.10
2023-04-17T12:03:04.405Z,24.80
2023-04-17T12:06:00.161Z,24.60
2023-04-17T12:08:53.709Z,25.40
2023-04-17T12:11:40.441Z,25.30
2023-04-17T12:14:26.765Z,26.00
2023-04-17T12:17:13.984Z,28.00
2023-04-17T12:20:04.224Z,30.00
2023-04-17T12:22:51.495Z,30.20
2023-04-17T12:25:38.118Z,29.20
2023-04-17T12:28:25.438Z,28.20
2023-04-17T12:31:12.075Z,23.20
2023-04-17T12:33:58.484Z,22.20
2023-04-17T12:36:45.179Z,20.70
2023-04-17T12:39:32.945Z,22.20
2023-04-17T12:42:20.354Z,22.40
2023-04-17T12:45:06.905Z,21.00
2023-04-17T12:47:53.050Z,21.10
2023-04-17T12:50:42.756Z,21.20
2023-04-17T12:53:28.839Z,21.30
2023-04-17T12:56:15.180Z,20.70
2023-04-17T12:59:03.026Z,21.60
2023-04-17T13:01:49.600Z,19.90
2023-04-17T13:04:35.671Z,19.50
2023-04-17T13:07:22.336Z,19.10
2023-04-17T13:10:09.450Z,19.40
2023-04-17T13:12:56.159Z,19.90
2023-04-17T13:15:42.465Z,18.80
2023-04-17T13:18:28.930Z,18.70
2023-04-17T13:21:14.879Z,18.90
2023-04-17T13:24:01.130Z,19.50
2023-04-17T13:26:47.805Z,19.50
2023-04-17T13:29:34.264Z,19.10
2023-04-17T13:32:20.601Z,18.70
2023-04-17T13:35:09.644Z,18.10
2023-04-17T13:37:58.094Z,18.50
2023-04-17T13:40:44.183Z,18.60
2023-04-17T13:43:30.002Z,18.70
2023-04-17T13:46:16.979Z,18.80
2023-04-17T13:49:03.115Z,18.70
2023-04-17T13:51:49.042Z,18.60
2023-04-17T13:54:35.793Z,18.90
2023-04-17T13:57:21.824Z,19.00
2023-04-17T14:00:08.267Z,19.10
2023-04-17T14:02:54.262Z,19.50
2023-04-17T14:05:40.783Z,19.30
2023-04-17T14:08:27.001Z,18.10
2023-04-17T14:11:15.066Z,18.60
2023-04-17T14:14:00.926Z,18.70
2023-04-17T14:16:48.761Z,18.90
2023-04-17T14:19:34.689Z,18.90
2023-04-17T14:22:20.952Z,18.60
2023-04-17T14:25:07.431Z,18.40
2023-04-17T14:27:54.363Z,18.30
2023-04-17T14:30:40.577Z,18.30
2023-04-17T14:33:26.787Z,18.50
2023-04-17T14:36:13.212Z,19.00
2023-04-17T14:38:59.269Z,19.70
2023-04-17T14:41:45.441Z,19.70
2023-04-17T14:44:31.875Z,19.70
2023-04-17T14:47:18.317Z,19.60
2023-04-17T14:50:05.828Z,20.20
2023-04-17T14:52:52.170Z,20.30
2023-04-17T14:55:38.164Z,20.40
2023-04-17T14:58:24.155Z,20.20
2023-04-17T15:01:10.603Z,19.30
2023-04-17T15:03:57.344Z,18.80
2023-04-17T15:06:43.793Z,19.00
2023-04-17T15:09:29.524Z,19.70
2023-04-17T15:12:15.629Z,20.20
2023-04-17T15:15:01.860Z,20.20
2023-04-17T15:17:48.000Z,20.20
2023-04-17T15:20:35.938Z,19.80
2023-04-17T15:23:23.020Z,19.70
2023-04-17T15:26:09.206Z,19.40
2023-04-17T15:28:54.989Z,19.40
2023-04-17T15:31:41.432Z,20.20
2023-04-17T15:34:27.191Z,19.00
2023-04-17T15:37:13.264Z,19.10
2023-04-17T15:39:59.240Z,19.10
2023-04-17T15:42:45.502Z,18.90
2023-04-17T15:45:31.129Z,18.80
2023-04-17T15:48:17.058Z,18.70
2023-04-17T15:51:04.039Z,18.80
2023-04-17T15:53:50.247Z,18.90
2023-04-17T15:56:36.489Z,18.70
2023-04-17T15:59:23.019Z,18.90
2023-04-17T16:02:13.436Z,19.00
2023-04-17T16:04:59.512Z,19.00
2023-04-17T16:07:45.754Z,19.00
2023-04-17T16:10:32.136Z,19.00
2023-04-17T16:13:18.273Z,18.90
2023-04-17T16:16:04.527Z,19.00
2023-04-17T16:18:50.771Z,19.10
2023-04-17T16:21:37.605Z,19.00
2023-04-17T16:24:24.542Z,18.80
2023-04-17T16:27:10.709Z,18.70
2023-04-17T16:29:57.198Z,18.80
2023-04-17T16:32:45.618Z,18.30
2023-04-17T16:35:31.648Z,18.30
2023-04-17T16:38:17.752Z,18.20
2023-04-17T16:41:04.684Z,18.20
2023-04-17T16:43:52.180Z,19.50
2023-04-17T16:46:58.705Z,18.30
2023-04-17T16:49:44.493Z,18.30
2023-04-17T16:52:31.829Z,18.20
2023-04-17T16:55:20.856Z,18.00
2023-04-17T16:58:07.128Z,18.10
2023-04-17T17:00:53.537Z,18.00
2023-04-17T17:03:40.407Z,18.10
2023-04-17T17:06:26.968Z,18.20
2023-04-17T17:09:14.121Z,18.20
2023-04-17T17:12:00.615Z,18.10
2023-04-17T17:14:46.787Z,18.10
2023-04-17T17:17:32.600Z,17.90
2023-04-17T17:20:19.258Z,18.10
2023-04-17T17:23:05.432Z,18.20
2023-04-17T17:25:51.636Z,18.20
2023-04-17T17:28:37.639Z,18.20
2023-04-17T17:31:23.472Z,18.00
2023-04-17T17:37:02.379Z,18.00
2023-04-17T17:39:48.261Z,18.00
2023-04-17T17:42:34.280Z,17.90
2023-04-17T17:45:20.627Z,18.00
2023-04-17T17:48:06.634Z,18.00
2023-04-17T17:50:55.873Z,17.90
2023-04-17T17:53:41.806Z,18.10
2023-04-17T17:56:28.553Z,18.30
2023-04-17T17:59:14.705Z,18.10
2023-04-17T18:02:02.012Z,18.20
2023-04-17T18:04:48.656Z,18.00
2023-04-17T18:07:35.580Z,17.60
2023-04-17T18:10:21.588Z,18.10
2023-04-17T18:13:07.437Z,18.10
2023-04-17T18:15:53.472Z,17.60
2023-04-17T18:18:39.665Z,17.10
2023-04-17T18:21:26.824Z,16.70
2023-04-17T18:24:12.942Z,17.10
2023-04-17T18:26:58.705Z,17.30
2023-04-17T18:29:45.208Z,16.70
2023-04-17T18:32:31.920Z,16.50
2023-04-17T18:35:18.496Z,16.60
2023-04-17T18:38:04.699Z,16.30
2023-04-17T18:40:59.582Z,16.40
2023-04-17T18:43:45.581Z,16.40
2023-04-17T18:46:31.812Z,16.40
2023-04-17T18:49:18.050Z,16.30
2023-04-17T18:52:03.795Z,16.40
2023-04-17T18:54:50.126Z,16.60
2023-04-17T18:57:37.252Z,16.70
2023-04-17T19:00:22.794Z,16.50
2023-04-17T19:03:10.406Z,16.40
2023-04-17T19:05:56.650Z,16.50
2023-04-17T19:08:42.678Z,16.60
2023-04-17T19:11:29.216Z,16.50
2023-04-17T19:14:15.263Z,16.60
2023-04-17T19:17:01.543Z,16.20
2023-04-17T19:19:47.495Z,16.00
2023-04-17T19:22:33.392Z,16.00
2023-04-17T19:25:19.547Z,15.90
2023-04-17T19:28:06.054Z,15.90
2023-04-17T19:30:51.904Z,16.10
2023-04-17T19:33:37.710Z,16.10
2023-04-17T19:36:24.091Z,16.20
2023-04-17T19:39:10.033Z,16.10
2023-04-17T19:41:56.538Z,15.70
2023-04-17T19:44:42.144Z,15.70
2023-04-17T19:47:27.951Z,15.70
2023-04-17T19:50:14.214Z,15.70
2023-04-17T19:53:00.683Z,15.70
2023-04-17T19:55:46.632Z,15.90
2023-04-17T19:58:32.880Z,16.00
2023-04-17T20:01:19.144Z,16.40
2023-04-17T20:04:05.483Z,16.50
2023-04-17T20:06:51.499Z,16.60
2023-04-17T20:09:37.431Z,16.40
2023-04-17T20:12:23.652Z,16.40
2023-04-17T20:15:10.382Z,16.30
2023-04-17T20:17:56.160Z,16.10
2023-04-17T20:20:42.492Z,16.10
2023-04-17T20:23:28.483Z,15.90
2023-04-17T20:26:15.027Z,15.80
2023-04-17T20:29:00.961Z,15.70
2023-04-17T20:31:46.975Z,15.60
2023-04-17T20:34:35.167Z,15.60
2023-04-17T20:37:23.141Z,15.60
2023-04-17T20:40:13.857Z,15.50
2023-04-17T20:43:00.128Z,15.40
2023-04-17T20:45:45.998Z,15.30
2023-04-17T20:48:32.747Z,15.40
2023-04-17T20:51:18.815Z,15.30
2023-04-17T20:54:05.054Z,15.10
2023-04-17T20:56:51.021Z,14.90
2023-04-17T20:59:37.433Z,16.60
2023-04-17T21:02:23.398Z,14.80
2023-04-17T21:05:09.626Z,14.80
2023-04-17T21:07:57.870Z,14.90
2023-04-17T21:10:43.658Z,15.00
2023-04-17T21:13:30.964Z,15.00
2023-04-17T21:16:17.044Z,14.90
2023-04-17T21:19:02.848Z,14.80
2023-04-17T21:21:48.901Z,14.70
2023-04-17T21:24:34.873Z,14.60
2023-04-17T21:27:21.060Z,14.50
2023-04-17T21:30:08.153Z,14.50
2023-04-17T21:32:54.609Z,14.30
2023-04-17T21:35:40.829Z,14.20
2023-04-17T21:38:27.647Z,14.30
2023-04-17T21:41:13.518Z,14.40
2023-04-17T21:44:01.873Z,14.40
2023-04-17T21:46:47.724Z,14.40
2023-04-17T21:49:33.782Z,14.10
2023-04-17T21:52:20.090Z,14.20
2023-04-17T21:55:07.841Z,14.10
2023-04-17T21:57:53.919Z,14.00
2023-04-17T22:00:40.150Z,14.10
2023-04-17T22:03:26.503Z,14.40
2023-04-17T22:06:12.533Z,14.70
2023-04-17T22:08:58.589Z,14.80
2023-04-17T22:11:44.678Z,14.80
2023-04-17T22:14:30.261Z,14.80
2023-04-17T22:17:16.777Z,14.70
2023-04-17T22:20:03.674Z,14.70
2023-04-17T22:22:50.231Z,14.70
2023-04-17T22:25:36.695Z,14.70
2023-04-17T22:28:22.898Z,14.70
2023-04-17T22:31:09.721Z,14.80
2023-04-17T22:33:55.816Z,14.50
2023-04-17T22:36:41.780Z,14.60
2023-04-17T22:39:27.810Z,14.30
2023-04-17T22:42:13.883Z,14.30
2023-04-17T22:44:59.776Z,14.30
2023-04-17T22:47:45.698Z,14.50
2023-04-17T22:50:32.567Z,14.70
2023-04-17T22:53:18.550Z,14.80
2023-04-17T22:56:05.501Z,14.90
2023-04-17T22:58:51.619Z,14.90
2023-04-17T23:01:37.713Z,14.90
2023-04-17T23:04:24.150Z,14.80
2023-04-17T23:07:10.069Z,15.00
2023-04-17T23:09:55.719Z,14.70
2023-04-17T23:12:41.559Z,14.80
2023-04-17T23:15:27.894Z,14.80
2023-04-17T23:18:13.519Z,15.00
2023-04-17T23:20:59.382Z,15.00
2023-04-17T23:23:48.209Z,15.10
2023-04-17T23:26:34.444Z,15.10
2023-04-17T23:29:20.172Z,15.00
2023-04-17T23:32:07.262Z,15.00
2023-04-17T23:34:53.228Z,14.60
2023-04-17T23:37:38.967Z,14.30
2023-04-17T23:40:26.454Z,14.60
2023-04-17T23:43:12.908Z,14.70
2023-04-17T23:46:00.456Z,14.80
2023-04-17T23:48:46.240Z,14.70
2023-04-17T23:51:32.169Z,14.60
2023-04-17T23:54:18.116Z,14.50
2023-04-17T23:57:04.602Z,14.40
2023-04-17T23:59:50.150Z,14.30
